Time;durP1;ratioP1;P1;durP2;ratioP2;P2;SDS_P1;SDS_P2;PMS_P1;PMS_P2;Temp;Humidity;BMP_temperature;BMP_pressure;BME280_temperature;BME280_humidity;BME280_pressure;Samples;Min_cycle;Max_cycle;Signal;HPM_P1;HPM_P2
2024/04/11 00:00:42;;;;;;;3.57;1.87;;;11.00;99.90;;;;;;5345132;26;20237;-86
2024/04/11 00:03:10;;;;;;;4.83;1.93;;;11.10;99.90;;;;;;5345377;26;20276;-87
2024/04/11 00:05:40;;;;;;;5.73;1.80;;;11.10;99.90;;;;;;5316827;26;20597;-86
2024/04/11 00:08:06;;;;;;;3.87;1.87;;;11.20;99.90;;;;;;5348426;26;20309;-86
2024/04/11 00:10:34;;;;;;;6.93;2.47;;;11.20;99.90;;;;;;5345258;26;20245;-86
2024/04/11 00:13:01;;;;;;;2.13;1.67;;;11.30;99.90;;;;;;5316343;26;20233;-86
2024/04/11 00:15:29;;;;;;;2.93;1.60;;;11.20;99.90;;;;;;5344251;26;20272;-87
2024/04/11 00:17:55;;;;;;;4.60;2.03;;;11.20;99.90;;;;;;5345502;26;20230;-87
2024/04/11 00:20:26;;;;;;;3.17;1.90;;;11.30;99.90;;;;;;5325351;26;20737;-86
2024/04/11 00:22:52;;;;;;;4.47;2.07;;;11.30;99.90;;;;;;5348224;26;20276;-86
2024/04/11 00:25:21;;;;;;;5.00;2.03;;;11.30;99.90;;;;;;5343450;26;20763;-86
2024/04/11 00:27:47;;;;;;;2.87;1.80;;;11.40;99.90;;;;;;5347158;26;20360;-86
2024/04/11 00:30:16;;;;;;;6.07;1.93;;;11.30;99.90;;;;;;5345730;26;20249;-87
2024/04/11 00:32:42;;;;;;;2.33;1.87;;;11.30;99.90;;;;;;5343378;26;20264;-86
2024/04/11 00:35:11;;;;;;;4.90;1.87;;;11.30;99.90;;;;;;5347844;26;20237;-86
2024/04/11 00:37:39;;;;;;;2.07;1.50;;;11.40;99.90;;;;;;5347072;26;20237;-86
2024/04/11 00:40:09;;;;;;;4.30;1.70;;;11.40;99.90;;;;;;5347934;26;20237;-87
2024/04/11 00:42:34;;;;;;;2.30;1.80;;;11.50;99.90;;;;;;5347926;26;20238;-88
2024/04/11 00:45:03;;;;;;;2.50;1.50;;;11.40;99.90;;;;;;5358232;26;20650;-86
2024/04/11 00:47:29;;;;;;;2.60;1.53;;;11.50;99.90;;;;;;5345853;26;20342;-87
2024/04/11 00:49:59;;;;;;;3.27;1.73;;;11.50;99.90;;;;;;5346828;26;20359;-87
2024/04/11 00:52:25;;;;;;;3.73;1.80;;;11.40;99.90;;;;;;5347492;26;20253;-87
2024/04/11 00:54:58;;;;;;;4.50;1.90;;;11.50;99.90;;;;;;5340317;26;20254;-87
2024/04/11 00:57:24;;;;;;;1.53;1.27;;;11.50;99.90;;;;;;5336421;26;20248;-87
2024/04/11 00:59:54;;;;;;;3.40;1.40;;;11.50;99.90;;;;;;5344987;26;20284;-87
2024/04/11 01:02:20;;;;;;;3.10;1.57;;;11.40;99.90;;;;;;5348029;26;20241;-86
2024/04/11 01:04:48;;;;;;;5.43;2.10;;;11.50;99.90;;;;;;5337125;26;20261;-87
2024/04/11 01:07:15;;;;;;;1.77;1.33;;;11.50;99.90;;;;;;5348161;26;20578;-87
2024/04/11 01:09:44;;;;;;;4.07;1.60;;;11.50;99.90;;;;;;5345933;26;20238;-86
2024/04/11 01:12:14;;;;;;;7.03;1.70;;;11.40;99.90;;;;;;5354747;26;20319;-86
2024/04/11 01:14:43;;;;;;;5.73;1.70;;;11.50;99.90;;;;;;5345400;26;20300;-87
2024/04/11 01:17:10;;;;;;;4.50;1.33;;;11.50;99.90;;;;;;5347183;26;20384;-86
2024/04/11 01:19:40;;;;;;;6.20;1.93;;;11.50;99.90;;;;;;5335299;26;20269;-86
2024/04/11 01:22:06;;;;;;;4.43;1.40;;;11.60;99.90;;;;;;5346672;26;20882;-86
2024/04/11 01:24:39;;;;;;;3.80;1.47;;;11.60;99.90;;;;;;5347435;26;20253;-87
2024/04/11 01:27:07;;;;;;;3.37;1.77;;;11.60;99.90;;;;;;5343793;26;20276;-87
2024/04/11 01:29:37;;;;;;;4.40;1.63;;;11.50;99.90;;;;;;5346181;26;20250;-87
2024/04/11 01:32:04;;;;;;;4.13;1.87;;;11.60;99.90;;;;;;5346264;26;20712;-87
2024/04/11 01:34:32;;;;;;;3.10;1.63;;;11.60;99.90;;;;;;5346364;26;20630;-86
2024/04/11 01:36:59;;;;;;;2.30;1.30;;;11.60;99.90;;;;;;5346890;26;20708;-86
2024/04/11 01:39:27;;;;;;;5.90;1.60;;;11.60;99.90;;;;;;5347587;26;20622;-87
2024/04/11 01:41:56;;;;;;;3.47;1.80;;;11.60;99.90;;;;;;5347246;26;20250;-86
2024/04/11 01:44:24;;;;;;;2.67;1.47;;;11.60;99.90;;;;;;5342478;26;20345;-87
2024/04/11 01:46:52;;;;;;;4.50;1.60;;;11.60;99.90;;;;;;5344385;26;20284;-87
2024/04/11 01:49:21;;;;;;;3.37;1.47;;;11.60;99.90;;;;;;5347371;26;20771;-85
2024/04/11 01:51:47;;;;;;;5.90;1.60;;;11.60;99.90;;;;;;5346919;26;20249;-87
2024/04/11 01:54:16;;;;;;;4.00;1.73;;;11.60;99.90;;;;;;5345574;26;20249;-86
2024/04/11 01:56:42;;;;;;;4.63;1.80;;;11.60;99.90;;;;;;5339265;26;20291;-86
2024/04/11 01:59:13;;;;;;;3.50;1.50;;;11.60;99.90;;;;;;5339615;26;20245;-87
2024/04/11 02:01:39;;;;;;;5.07;1.40;;;11.60;99.90;;;;;;5346029;26;20292;-87
2024/04/11 02:04:09;;;;;;;2.37;1.50;;;11.60;99.90;;;;;;5340046;26;20249;-86
2024/04/11 02:06:36;;;;;;;3.13;1.40;;;11.60;99.90;;;;;;5345862;26;20311;-87
2024/04/11 02:09:09;;;;;;;2.93;1.90;;;11.60;99.90;;;;;;5346252;26;20233;-87
2024/04/11 02:11:36;;;;;;;5.40;1.80;;;11.60;99.90;;;;;;5341599;26;20292;-85
2024/04/11 02:14:04;;;;;;;4.07;1.40;;;11.60;99.90;;;;;;5334749;26;20245;-86
2024/04/11 02:16:34;;;;;;;3.20;1.23;;;11.60;99.90;;;;;;5344035;26;20265;-86
2024/04/11 02:19:04;;;;;;;3.87;1.50;;;11.60;99.90;;;;;;5344825;26;20242;-87
2024/04/11 02:21:30;;;;;;;5.60;1.63;;;11.60;99.90;;;;;;5330247;26;20289;-86
2024/04/11 02:23:58;;;;;;;2.77;1.40;;;11.60;99.90;;;;;;5337915;26;20343;-86
2024/04/11 02:26:25;;;;;;;3.77;1.90;;;11.50;99.90;;;;;;5347990;26;20743;-86
2024/04/11 02:28:53;;;;;;;3.10;1.47;;;11.60;99.90;;;;;;5340716;26;20253;-87
2024/04/11 02:31:19;;;;;;;5.27;1.53;;;11.60;99.90;;;;;;5346328;26;20295;-88
2024/04/11 02:33:50;;;;;;;3.57;1.37;;;11.60;99.90;;;;;;5325554;26;20242;-86
2024/04/11 02:36:16;;;;;;;8.63;1.90;;;11.60;99.90;;;;;;5344404;26;20234;-86
2024/04/11 02:38:44;;;;;;;3.77;1.33;;;11.60;99.90;;;;;;5346509;26;20249;-86
2024/04/11 02:41:10;;;;;;;6.40;1.70;;;11.60;99.90;;;;;;5344700;26;20779;-86
2024/04/11 02:43:40;;;;;;;3.40;1.60;;;11.60;99.90;;;;;;5332437;26;20241;-86
2024/04/11 02:46:15;;;;;;;3.17;1.33;;;11.60;99.90;;;;;;5355415;26;20249;-86
2024/04/11 02:48:44;;;;;;;4.57;1.50;;;11.60;99.90;;;;;;5346611;26;20279;-87
2024/04/11 02:51:13;;;;;;;3.67;1.30;;;11.70;99.90;;;;;;5346285;26;20242;-87
2024/04/11 02:53:42;;;;;;;3.47;1.50;;;11.70;99.90;;;;;;5345187;26;20280;-87
2024/04/11 02:56:11;;;;;;;4.67;1.43;;;11.70;99.90;;;;;;5345783;26;20233;-87
2024/04/11 02:58:40;;;;;;;3.23;1.47;;;11.70;99.90;;;;;;5332134;26;20301;-87
2024/04/11 03:01:07;;;;;;;2.80;1.20;;;11.70;99.90;;;;;;5345759;26;20795;-86
2024/04/11 03:03:37;;;;;;;2.70;1.53;;;11.70;99.90;;;;;;5344438;26;20237;-87
2024/04/11 03:06:06;;;;;;;2.53;1.60;;;11.70;99.90;;;;;;5339544;26;20347;-87
2024/04/11 03:08:40;;;;;;;3.17;1.20;;;11.70;99.90;;;;;;5344758;26;20309;-87
2024/04/11 03:11:06;;;;;;;5.27;1.50;;;11.70;99.90;;;;;;5340671;26;20253;-88
2024/04/11 03:13:35;;;;;;;3.00;1.53;;;11.70;99.90;;;;;;5354291;26;20287;-88
2024/04/11 03:16:02;;;;;;;3.67;1.37;;;11.80;99.90;;;;;;5353830;26;20433;-86
2024/04/11 03:18:31;;;;;;;5.77;1.20;;;11.80;99.90;;;;;;5344536;26;20249;-85
2024/04/11 03:20:59;;;;;;;4.00;1.60;;;11.80;99.90;;;;;;5325528;26;20245;-86
2024/04/11 03:23:30;;;;;;;4.27;1.50;;;11.80;99.90;;;;;;5345756;26;20249;-86
2024/04/11 03:25:59;;;;;;;3.60;1.50;;;11.80;99.90;;;;;;5347370;26;20233;-86
2024/04/11 03:28:28;;;;;;;4.93;1.43;;;11.80;99.90;;;;;;5345854;26;20287;-85
2024/04/11 03:30:54;;;;;;;3.53;1.20;;;11.80;99.90;;;;;;5345052;26;20724;-87
2024/04/11 03:33:23;;;;;;;4.80;1.33;;;11.90;99.90;;;;;;5344568;26;20229;-86
2024/04/11 03:35:53;;;;;;;5.33;1.47;;;11.90;99.90;;;;;;5344852;26;20249;-86
2024/04/11 03:38:23;;;;;;;4.67;1.63;;;12.00;99.90;;;;;;5344446;26;20253;-85
2024/04/11 03:41:02;;;;;;;2.80;1.20;;;12.00;99.90;;;;;;5336686;26;20260;-86
2024/04/11 03:43:31;;;;;;;5.20;1.80;;;12.00;99.90;;;;;;5344978;26;20818;-86
2024/04/11 03:46:07;;;;;;;5.13;1.50;;;12.00;99.90;;;;;;5344282;26;20253;-88
2024/04/11 03:48:36;;;;;;;3.10;1.30;;;12.00;99.90;;;;;;5343940;26;20285;-87
2024/04/11 04:44:57;;;;;;;5.63;1.43;;;12.40;99.90;;;;;;5269595;27;20285;-86
2024/04/11 05:27:37;;;;;;;4.73;1.10;;;12.40;99.90;;;;;;5549266;21;20254;-86
2024/04/11 05:30:10;;;;;;;3.30;1.17;;;12.40;99.90;;;;;;5209391;27;20288;-84
2024/04/11 05:32:40;;;;;;;2.57;1.10;;;12.40;99.90;;;;;;5211808;27;20229;-82
2024/04/11 05:35:09;;;;;;;4.47;1.10;;;12.40;99.90;;;;;;5212731;27;20301;-83
2024/04/11 05:37:39;;;;;;;3.03;1.23;;;12.40;99.90;;;;;;5211872;27;20233;-83
2024/04/11 05:40:05;;;;;;;7.73;1.40;;;12.40;99.90;;;;;;5212048;27;20246;-82
2024/04/11 05:42:44;;;;;;;4.40;0.90;;;12.40;99.90;;;;;;5318900;22;20265;-82
2024/04/11 05:45:16;;;;;;;1.90;1.17;;;12.40;99.90;;;;;;5350066;26;20225;-82
2024/04/11 05:47:43;;;;;;;6.57;1.00;;;12.40;99.90;;;;;;5351124;26;20222;-82
2024/04/11 05:50:15;;;;;;;2.60;0.87;;;12.30;99.90;;;;;;5350109;26;20323;-83
2024/04/11 05:52:41;;;;;;;3.70;1.20;;;12.20;99.90;;;;;;5349815;26;20275;-82
2024/04/11 05:55:10;;;;;;;4.93;1.17;;;12.10;99.90;;;;;;5347995;26;20233;-82
2024/04/11 05:57:39;;;;;;;6.13;1.40;;;12.00;99.90;;;;;;5326860;26;20277;-81
2024/04/11 06:00:11;;;;;;;3.23;1.40;;;12.00;99.90;;;;;;5339133;26;20245;-82
2024/04/11 06:02:38;;;;;;;3.17;1.20;;;11.90;99.90;;;;;;5319704;26;20313;-82
2024/04/11 06:05:07;;;;;;;5.73;1.33;;;11.90;99.90;;;;;;5351082;26;20712;-85
2024/04/11 06:07:35;;;;;;;3.83;1.23;;;11.80;99.90;;;;;;5350600;26;20233;-82
2024/04/11 06:10:04;;;;;;;6.10;1.40;;;11.70;99.90;;;;;;5323331;26;20268;-82
2024/04/11 06:12:30;;;;;;;3.60;1.30;;;11.50;99.90;;;;;;5350777;26;20311;-81
2024/04/11 06:15:02;;;;;;;2.13;1.17;;;11.40;99.90;;;;;;5336501;26;20823;-82
2024/04/11 06:17:28;;;;;;;2.70;1.10;;;11.30;99.90;;;;;;5315997;26;20279;-82
2024/04/11 06:19:56;;;;;;;4.60;1.67;;;11.30;99.90;;;;;;5281242;27;20571;-83
2024/04/11 06:22:22;;;;;;;3.10;1.13;;;11.30;99.90;;;;;;5310226;26;20232;-82
2024/04/11 06:24:51;;;;;;;5.23;1.87;;;11.30;99.90;;;;;;5314268;26;20247;-82
2024/04/11 06:27:17;;;;;;;6.70;1.23;;;11.30;99.90;;;;;;5315072;27;20782;-82
2024/04/11 06:29:52;;;;;;;3.70;1.63;;;11.30;99.90;;;;;;5318566;26;20242;-83
2024/04/11 06:32:22;;;;;;;2.53;1.40;;;11.20;99.90;;;;;;5320419;26;20280;-83
2024/04/11 06:35:04;;;;;;;3.80;1.40;;;11.20;99.90;;;;;;5314862;26;20246;-82
2024/04/11 06:37:31;;;;;;;5.33;1.30;;;11.20;99.90;;;;;;5310887;27;20301;-82
2024/04/11 06:40:11;;;;;;;3.57;1.77;;;11.20;99.90;;;;;;5323825;26;20272;-82
2024/04/11 06:42:40;;;;;;;4.33;1.80;;;11.20;99.90;;;;;;5290229;26;20366;-82
2024/04/11 06:45:14;;;;;;;2.30;1.30;;;11.10;99.90;;;;;;5294536;27;20247;-82
2024/04/11 06:47:43;;;;;;;5.10;1.53;;;11.10;99.90;;;;;;5312329;26;20355;-82
2024/04/11 06:50:13;;;;;;;2.70;1.37;;;11.10;99.90;;;;;;5314979;27;20656;-83
2024/04/11 06:52:39;;;;;;;3.40;1.27;;;11.10;99.90;;;;;;5310385;26;20266;-83
2024/04/11 06:55:08;;;;;;;6.23;1.77;;;11.10;99.90;;;;;;5311505;26;20697;-82
2024/04/11 06:57:37;;;;;;;3.87;1.63;;;11.00;99.90;;;;;;5310453;27;20790;-82
2024/04/11 07:00:12;;;;;;;7.90;1.93;;;11.10;99.90;;;;;;5312672;26;20310;-81
2024/04/11 07:02:40;;;;;;;6.17;1.87;;;11.00;99.90;;;;;;5299307;27;20712;-83
2024/04/11 07:05:13;;;;;;;5.73;1.50;;;11.00;99.90;;;;;;5318543;26;20672;-82
2024/04/11 07:07:41;;;;;;;5.23;1.77;;;11.00;99.90;;;;;;5339057;26;20762;-81
2024/04/11 07:10:15;;;;;;;5.80;2.10;;;11.10;99.90;;;;;;5328890;26;20234;-82
2024/04/11 07:12:41;;;;;;;6.67;1.67;;;11.10;99.90;;;;;;5311294;26;20245;-82
2024/04/11 07:15:12;;;;;;;5.73;1.67;;;11.10;99.90;;;;;;5314478;27;20320;-83
2024/04/11 07:17:45;;;;;;;5.27;1.53;;;11.20;99.90;;;;;;5314816;27;20297;-82
2024/04/11 07:20:25;;;;;;;3.43;1.83;;;11.10;99.90;;;;;;5314540;27;20230;-82
2024/04/11 07:22:54;;;;;;;4.17;1.50;;;11.10;99.90;;;;;;5315949;26;20374;-83
2024/04/11 07:25:30;;;;;;;5.50;2.17;;;11.10;99.90;;;;;;5322282;26;20241;-83
2024/04/11 07:27:56;;;;;;;7.27;2.37;;;11.10;99.90;;;;;;5315599;26;20569;-82
2024/04/11 07:33:06;;;;;;;6.43;2.03;;;11.20;99.90;;;;;;5310416;26;20292;-83
2024/04/11 07:35:37;;;;;;;4.20;1.80;;;11.20;99.90;;;;;;5332192;26;20282;-81
2024/04/11 07:38:06;;;;;;;4.17;1.83;;;11.30;99.90;;;;;;5320919;26;20237;-82
2024/04/11 07:40:33;;;;;;;5.43;2.30;;;11.30;99.90;;;;;;5332732;26;20246;-83
2024/04/11 07:43:09;;;;;;;3.10;1.53;;;11.30;99.90;;;;;;5333825;26;20292;-82
2024/04/11 07:45:36;;;;;;;7.07;2.40;;;11.30;99.90;;;;;;5320782;26;20254;-83
2024/04/11 07:48:08;;;;;;;4.67;2.00;;;11.30;99.90;;;;;;5315603;26;20874;-82
2024/04/11 07:50:37;;;;;;;4.93;2.23;;;11.30;99.90;;;;;;5306949;27;20250;-82
2024/04/11 07:53:07;;;;;;;6.83;1.90;;;11.20;99.90;;;;;;5326724;26;20277;-82
2024/04/11 07:55:33;;;;;;;3.63;1.80;;;11.20;99.90;;;;;;5314801;27;20759;-82
2024/04/11 07:58:05;;;;;;;3.70;2.13;;;11.20;99.90;;;;;;5347808;26;20610;-82
2024/04/11 08:00:38;;;;;;;4.10;1.90;;;11.20;99.90;;;;;;5316353;26;20273;-82
2024/04/11 08:03:08;;;;;;;6.13;2.40;;;11.20;99.90;;;;;;5308971;26;20247;-82
2024/04/11 08:05:36;;;;;;;8.63;2.33;;;11.20;99.90;;;;;;5310908;27;20234;-82
2024/04/11 08:08:05;;;;;;;3.60;1.67;;;11.30;99.90;;;;;;5315632;26;20351;-83
2024/04/11 08:10:32;;;;;;;6.23;2.20;;;11.30;99.90;;;;;;5340026;26;21023;-83
2024/04/11 08:13:01;;;;;;;4.73;2.07;;;11.30;99.90;;;;;;5338810;26;20246;-84
2024/04/11 08:15:27;;;;;;;6.10;2.40;;;11.40;99.90;;;;;;5314347;27;20821;-84
2024/04/11 08:17:55;;;;;;;10.70;2.10;;;11.40;99.90;;;;;;5314411;27;20234;-83
2024/04/11 08:20:21;;;;;;;6.73;2.33;;;11.40;99.90;;;;;;5314893;27;20330;-82
2024/04/11 08:22:53;;;;;;;4.27;2.00;;;11.40;99.90;;;;;;5327352;26;20702;-82
2024/04/11 08:25:18;;;;;;;8.07;2.50;;;11.40;99.90;;;;;;5297794;26;20238;-82
2024/04/11 08:27:48;;;;;;;7.80;2.20;;;11.40;99.90;;;;;;5322422;26;20237;-83
2024/04/11 08:30:15;;;;;;;5.33;2.30;;;11.40;99.90;;;;;;5313425;26;20289;-83
2024/04/11 08:32:45;;;;;;;4.93;2.30;;;11.40;99.90;;;;;;5315522;27;20250;-83
2024/04/11 08:35:12;;;;;;;4.57;2.10;;;11.40;99.90;;;;;;5286162;27;20699;-82
2024/04/11 08:37:41;;;;;;;4.27;2.27;;;11.40;99.90;;;;;;5316005;26;20286;-82
2024/04/11 08:40:10;;;;;;;3.47;2.00;;;11.50;99.90;;;;;;5315012;27;20289;-82
2024/04/11 08:42:39;;;;;;;2.67;2.03;;;11.40;99.90;;;;;;5312198;27;20238;-82
2024/04/11 08:45:06;;;;;;;4.57;2.07;;;11.50;99.90;;;;;;5322244;26;20251;-83
2024/04/11 08:47:35;;;;;;;6.30;2.77;;;11.50;99.90;;;;;;5316406;27;20246;-82
2024/04/11 08:50:01;;;;;;;8.33;2.83;;;11.50;99.90;;;;;;5329801;26;20277;-82
2024/04/11 08:52:34;;;;;;;7.60;2.43;;;11.60;99.90;;;;;;5317069;26;20234;-83
2024/04/11 08:55:01;;;;;;;6.27;2.67;;;11.60;99.90;;;;;;5321051;26;20310;-82
2024/04/11 08:57:33;;;;;;;4.17;2.23;;;11.60;99.90;;;;;;5325787;26;20251;-83
2024/04/11 09:00:01;;;;;;;4.10;2.17;;;11.70;99.90;;;;;;5317584;27;20870;-83
2024/04/11 09:02:29;;;;;;;5.97;2.33;;;11.70;99.90;;;;;;5315562;26;20358;-83
2024/04/11 09:04:56;;;;;;;4.40;2.33;;;11.80;99.90;;;;;;5322151;26;20299;-84
2024/04/11 09:07:24;;;;;;;6.13;2.30;;;11.80;99.90;;;;;;5320298;26;20242;-82
2024/04/11 09:09:51;;;;;;;7.33;2.47;;;11.90;99.90;;;;;;5301205;27;20753;-82
2024/04/11 09:12:22;;;;;;;3.40;2.43;;;12.00;99.90;;;;;;5311749;26;20241;-85
2024/04/11 09:14:52;;;;;;;7.00;2.57;;;12.10;99.90;;;;;;5313138;26;20258;-85
2024/04/11 09:17:21;;;;;;;5.60;2.17;;;12.20;99.90;;;;;;5321533;26;20246;-85
2024/04/11 09:19:49;;;;;;;7.13;3.20;;;12.40;99.90;;;;;;5294513;27;20305;-84
2024/04/11 09:22:21;;;;;;;6.97;2.83;;;12.40;99.90;;;;;;5308238;26;20765;-85
2024/04/11 09:24:47;;;;;;;6.57;2.70;;;12.40;99.90;;;;;;5301126;26;20270;-85
2024/04/11 09:27:17;;;;;;;6.33;3.10;;;12.40;99.90;;;;;;5294144;26;20239;-84
2024/04/11 09:29:43;;;;;;;6.33;3.57;;;12.40;99.90;;;;;;5300184;26;20352;-85
2024/04/11 09:32:15;;;;;;;6.67;2.80;;;12.40;99.90;;;;;;5311664;26;20306;-84
2024/04/11 09:34:45;;;;;;;6.67;2.97;;;12.40;99.90;;;;;;5312471;26;20259;-86
2024/04/11 09:37:23;;;;;;;7.17;3.33;;;12.50;99.90;;;;;;5321734;26;20276;-85
2024/04/11 09:39:56;;;;;;;6.03;2.83;;;12.60;99.90;;;;;;5311519;26;20233;-86
2024/04/11 09:42:30;;;;;;;6.17;3.23;;;12.70;99.90;;;;;;5299874;26;20798;-85
2024/04/11 09:44:56;;;;;;;4.43;2.90;;;12.70;99.90;;;;;;5337385;26;20246;-85
2024/04/11 09:47:31;;;;;;;6.60;3.03;;;12.90;99.90;;;;;;5305910;26;20298;-85
2024/04/11 09:49:59;;;;;;;5.77;2.90;;;13.00;99.90;;;;;;5314999;26;20238;-85
2024/04/11 09:52:34;;;;;;;6.93;3.40;;;13.10;99.90;;;;;;5300741;27;20338;-85
2024/04/11 09:55:03;;;;;;;6.30;3.00;;;13.10;99.90;;;;;;5296925;27;20246;-86
2024/04/11 09:57:34;;;;;;;7.43;3.20;;;13.00;99.90;;;;;;5313981;26;20241;-85
2024/04/11 10:00:01;;;;;;;7.13;3.60;;;13.00;99.90;;;;;;5285416;27;20680;-86
2024/04/11 10:02:32;;;;;;;10.33;3.40;;;12.90;99.90;;;;;;5306829;26;20358;-84
2024/04/11 10:05:04;;;;;;;5.70;3.00;;;13.00;99.90;;;;;;5313159;26;20246;-84
2024/04/11 10:07:41;;;;;;;8.97;3.60;;;13.10;99.90;;;;;;5310679;26;20799;-85
2024/04/11 10:10:17;;;;;;;7.60;3.50;;;13.30;99.90;;;;;;5292407;26;20673;-85
2024/04/11 10:12:48;;;;;;;7.97;3.57;;;13.40;99.90;;;;;;5331436;26;20280;-84
2024/04/11 10:15:18;;;;;;;8.37;3.30;;;13.40;99.90;;;;;;5308757;26;20243;-84
2024/04/11 10:18:05;;;;;;;8.43;3.73;;;13.40;99.90;;;;;;5290094;26;20239;-85
2024/04/11 10:20:38;;;;;;;7.57;3.90;;;13.40;99.90;;;;;;5284850;26;20793;-85
2024/04/11 10:23:09;;;;;;;7.77;4.10;;;13.50;99.90;;;;;;5311967;26;20261;-84
2024/04/11 10:25:38;;;;;;;7.27;3.40;;;13.50;99.90;;;;;;5326143;26;20243;-85
2024/04/11 10:28:14;;;;;;;9.93;3.87;;;13.50;99.90;;;;;;5313129;26;20298;-85
2024/04/11 10:30:42;;;;;;;6.67;3.97;;;13.50;99.90;;;;;;5322302;26;20259;-83
2024/04/11 10:33:13;;;;;;;7.90;3.60;;;13.50;99.90;;;;;;5313367;26;20285;-84
2024/04/11 10:35:41;;;;;;;9.40;4.23;;;13.50;99.90;;;;;;5304520;26;21054;-84
2024/04/11 10:38:12;;;;;;;9.13;4.20;;;13.60;99.90;;;;;;5335485;26;20309;-84
2024/04/11 10:40:41;;;;;;;10.57;4.10;;;13.60;99.90;;;;;;5308544;26;20274;-84
2024/04/11 10:43:24;;;;;;;5.90;4.10;;;13.60;99.90;;;;;;5329959;26;20251;-84
2024/04/11 10:45:50;;;;;;;7.93;4.07;;;13.60;99.90;;;;;;5317130;26;20594;-84
2024/04/11 10:48:24;;;;;;;5.63;4.03;;;13.70;99.90;;;;;;5315694;26;20246;-86
2024/04/11 10:50:50;;;;;;;5.50;3.87;;;13.70;99.90;;;;;;5292230;26;20778;-84
2024/04/11 10:53:20;;;;;;;9.17;3.67;;;13.80;99.90;;;;;;5311355;26;20255;-84
2024/04/11 10:55:47;;;;;;;6.70;3.63;;;13.90;99.90;;;;;;5314928;26;20268;-85
2024/04/11 10:58:22;;;;;;;5.63;4.00;;;13.90;99.90;;;;;;5304503;26;20309;-84
2024/04/11 11:03:47;;;;;;;6.20;4.20;;;14.00;99.90;;;;;;5321364;26;20377;-84
2024/04/11 11:06:24;;;;;;;6.60;3.80;;;14.00;99.90;;;;;;5302888;26;20277;-85
2024/04/11 11:08:59;;;;;;;7.70;3.73;;;13.90;99.90;;;;;;5311511;27;20672;-84
2024/04/11 11:11:26;;;;;;;6.10;3.70;;;13.90;99.90;;;;;;5300536;26;20248;-85
2024/04/11 11:13:56;;;;;;;6.20;4.17;;;14.00;99.90;;;;;;5320703;26;20238;-85
2024/04/11 11:16:26;;;;;;;8.33;4.33;;;14.10;99.90;;;;;;5314035;26;20247;-85
2024/04/11 11:18:58;;;;;;;6.30;3.67;;;14.10;99.90;;;;;;5322714;26;20238;-86
2024/04/11 11:21:25;;;;;;;5.53;3.53;;;14.10;99.90;;;;;;5312762;26;20247;-85
2024/04/11 11:23:59;;;;;;;6.77;3.57;;;14.10;99.90;;;;;;5310843;26;20986;-85
2024/04/11 11:26:35;;;;;;;6.80;3.70;;;14.00;99.90;;;;;;5290764;27;20352;-84
2024/04/11 11:29:08;;;;;;;8.90;4.60;;;14.00;99.90;;;;;;5305795;26;20272;-85
2024/04/11 11:31:36;;;;;;;7.73;3.90;;;14.20;99.90;;;;;;5301752;26;20784;-84
2024/04/11 11:34:09;;;;;;;7.47;4.03;;;14.20;99.90;;;;;;5313570;26;20285;-84
2024/04/11 11:36:37;;;;;;;7.13;4.27;;;14.20;99.90;;;;;;5309322;26;20281;-85
2024/04/11 11:39:09;;;;;;;8.80;4.47;;;14.30;99.90;;;;;;5303819;26;20460;-84
2024/04/11 12:13:31;;;;;;;10.37;4.90;;;14.10;99.90;;;;;;5280074;27;20363;-83
2024/04/11 12:15:57;;;;;;;7.23;4.80;;;14.10;99.90;;;;;;5269354;27;20247;-83
2024/04/11 12:18:26;;;;;;;7.17;4.97;;;14.00;99.90;;;;;;5275426;27;20593;-84
2024/04/11 12:20:57;;;;;;;8.00;4.90;;;14.00;99.90;;;;;;5278465;27;20283;-83
2024/04/11 12:23:23;;;;;;;6.77;4.77;;;14.00;99.90;;;;;;5278753;27;20361;-86
2024/04/11 12:25:55;;;;;;;9.27;5.30;;;14.10;99.90;;;;;;5279047;27;20229;-86
2024/04/11 12:28:25;;;;;;;9.07;4.70;;;14.20;99.90;;;;;;5278673;27;20274;-85
2024/04/11 12:30:59;;;;;;;8.43;5.67;;;14.20;99.90;;;;;;5278479;27;20262;-86
2024/04/11 12:33:27;;;;;;;8.03;5.20;;;14.20;99.90;;;;;;5278229;27;20374;-86
2024/04/11 12:35:59;;;;;;;10.40;5.80;;;14.20;99.90;;;;;;5278671;27;20283;-85
2024/04/11 12:38:29;;;;;;;9.43;5.50;;;14.20;99.90;;;;;;5278163;27;20257;-85
2024/04/11 12:40:58;;;;;;;8.60;4.90;;;14.20;99.90;;;;;;5278334;27;20597;-85
2024/04/11 12:43:28;;;;;;;7.70;5.17;;;14.30;99.90;;;;;;5278418;27;20244;-87
2024/04/11 12:45:58;;;;;;;8.60;4.80;;;14.30;99.90;;;;;;5279251;27;20228;-86
2024/04/11 12:48:25;;;;;;;8.97;5.30;;;14.40;99.90;;;;;;5278702;27;20580;-86
2024/04/11 12:50:55;;;;;;;5.53;4.93;;;14.30;99.90;;;;;;5277548;27;20257;-86
2024/04/11 12:53:21;;;;;;;8.17;4.90;;;14.30;99.90;;;;;;5276912;27;20292;-86
2024/04/11 12:55:52;;;;;;;8.80;5.60;;;14.30;99.90;;;;;;5278281;27;20279;-86
2024/04/11 12:58:20;;;;;;;7.80;5.03;;;14.30;99.90;;;;;;5277707;27;20337;-87
2024/04/11 13:00:57;;;;;;;10.67;5.50;;;14.20;99.90;;;;;;5277752;27;20231;-86
2024/04/11 13:03:34;;;;;;;9.30;5.77;;;14.30;99.90;;;;;;5277903;27;20274;-86
2024/04/11 13:06:07;;;;;;;11.37;5.50;;;14.30;99.90;;;;;;5277941;27;20287;-86
2024/04/11 13:08:34;;;;;;;10.23;5.50;;;14.30;99.90;;;;;;5278410;27;20232;-86
2024/04/11 13:11:09;;;;;;;10.23;5.63;;;14.40;99.90;;;;;;5291392;27;20231;-86
2024/04/11 13:13:38;;;;;;;8.03;6.00;;;14.40;99.90;;;;;;5312145;26;20285;-86
2024/04/11 13:16:12;;;;;;;9.93;6.13;;;14.40;99.90;;;;;;5282258;27;20231;-87
2024/04/11 13:18:41;;;;;;;8.20;5.47;;;14.40;99.90;;;;;;5278150;27;20232;-87
2024/04/11 13:21:13;;;;;;;7.53;5.47;;;14.40;99.90;;;;;;5278275;27;20231;-87
2024/04/11 13:23:44;;;;;;;9.03;5.70;;;14.40;99.90;;;;;;5278063;27;20607;-87
2024/04/11 13:26:10;;;;;;;10.57;5.63;;;14.50;99.90;;;;;;5278157;27;20295;-87
2024/04/11 13:28:47;;;;;;;10.93;6.00;;;14.50;99.90;;;;;;5277798;27;20685;-87
2024/04/11 13:31:19;;;;;;;9.50;5.43;;;14.60;99.90;;;;;;5278067;27;20730;-87
2024/04/11 13:33:52;;;;;;;12.33;5.77;;;14.60;99.90;;;;;;5277739;27;20243;-86
2024/04/11 13:36:23;;;;;;;8.93;5.67;;;14.60;99.90;;;;;;5278191;27;20228;-86
2024/04/11 13:38:52;;;;;;;7.43;5.57;;;14.60;99.90;;;;;;5278139;27;20235;-86
2024/04/11 13:41:45;;;;;;;11.63;5.80;;;14.70;99.90;;;;;;5278054;27;20254;-87
2024/04/11 13:44:18;;;;;;;8.67;6.10;;;14.70;99.90;;;;;;5277626;27;20243;-86
2024/04/11 13:46:50;;;;;;;10.00;5.93;;;14.80;99.90;;;;;;5277629;27;20236;-86
2024/04/11 13:49:30;;;;;;;9.80;6.27;;;14.80;99.90;;;;;;5277744;27;20227;-86
2024/04/11 13:52:18;;;;;;;10.03;5.87;;;14.80;99.90;;;;;;5278113;27;20339;-86
2024/04/11 13:54:45;;;;;;;11.13;6.13;;;14.70;99.90;;;;;;5277192;27;20228;-86
2024/04/11 13:57:20;;;;;;;11.00;5.93;;;14.80;99.90;;;;;;5277863;27;20227;-87
2024/04/11 13:59:50;;;;;;;8.07;5.97;;;14.80;99.90;;;;;;5278157;27;20266;-87
2024/04/11 14:02:32;;;;;;;7.90;5.77;;;14.80;99.90;;;;;;5277213;27;20251;-88
2024/04/11 14:04:58;;;;;;;10.43;5.43;;;14.90;99.90;;;;;;5277359;27;20317;-86
2024/04/11 14:07:27;;;;;;;9.10;6.40;;;15.00;99.90;;;;;;5277433;27;20254;-87
2024/04/11 14:09:55;;;;;;;10.20;6.03;;;15.00;99.90;;;;;;5277872;27;20234;-86
2024/04/11 14:12:24;;;;;;;6.67;5.40;;;15.00;99.90;;;;;;5277336;27;20272;-87
2024/04/11 14:14:51;;;;;;;10.83;5.90;;;15.10;99.90;;;;;;5276902;27;20231;-86
2024/04/11 14:17:28;;;;;;;9.37;5.50;;;15.10;99.90;;;;;;5277209;27;20279;-88
2024/04/11 14:20:19;;;;;;;12.43;6.33;;;15.20;99.90;;;;;;5291290;27;20239;-87
2024/04/11 14:22:47;;;;;;;9.47;5.63;;;15.40;99.90;;;;;;5275697;27;20283;-86
2024/04/11 14:25:29;;;;;;;8.43;5.77;;;15.60;99.90;;;;;;5276716;27;20470;-87
2024/04/11 14:28:02;;;;;;;9.17;5.90;;;15.90;99.90;;;;;;5277591;27;20714;-86
2024/04/11 14:30:33;;;;;;;7.23;5.37;;;15.70;99.90;;;;;;5277671;27;20231;-87
2024/04/11 14:33:37;;;;;;;7.13;5.77;;;15.50;99.90;;;;;;5276996;27;20302;-86
2024/04/11 14:38:48;;;;;;;7.20;5.67;;;15.30;99.90;;;;;;5279588;27;20258;-87
2024/04/11 14:41:16;;;;;;;12.00;6.50;;;15.20;99.90;;;;;;5277128;27;20353;-86
2024/04/11 14:43:48;;;;;;;7.87;5.67;;;15.20;99.90;;;;;;5276822;27;20769;-86
2024/04/11 14:46:15;;;;;;;8.00;6.00;;;15.20;99.90;;;;;;5277679;27;20231;-86
2024/04/11 14:48:46;;;;;;;9.63;6.67;;;15.10;99.90;;;;;;5277466;27;20315;-87
2024/04/11 14:51:15;;;;;;;9.60;5.70;;;15.10;99.90;;;;;;5277209;27;20290;-87
2024/04/11 14:53:46;;;;;;;8.83;5.93;;;15.00;99.90;;;;;;5301567;26;20255;-86
2024/04/11 14:56:18;;;;;;;7.70;5.60;;;15.00;99.90;;;;;;5277253;27;20741;-88
2024/04/11 14:58:48;;;;;;;9.63;6.10;;;14.90;99.90;;;;;;5277461;27;20248;-87
2024/04/11 15:01:16;;;;;;;8.33;6.07;;;14.90;99.90;;;;;;5276749;27;20235;-87
2024/04/11 15:03:47;;;;;;;7.63;5.73;;;15.00;99.90;;;;;;5276211;27;20801;-86
2024/04/11 15:06:13;;;;;;;9.67;6.47;;;15.00;99.90;;;;;;5277689;27;20231;-86
2024/04/11 15:08:42;;;;;;;9.13;5.70;;;15.00;99.90;;;;;;5276548;27;20283;-88
2024/04/11 15:11:11;;;;;;;8.13;5.87;;;15.10;99.90;;;;;;5276945;27;20566;-86
2024/04/11 15:13:44;;;;;;;8.60;6.30;;;15.10;99.90;;;;;;5276351;27;20317;-86